Flight Track Log - Related Links

Times and Time Zones

All times are in EDT time to prevent confusion due to time zone crossing. See the SKW7380 flight status page for this flight to view local times or setup timezone preferences in your user account.

Time Position Orientation Groundspeed Altitude Reporting Facility
EDT Latitude Longitude Course Direction KTS MPH feet Rate Location/Type
Thu 07:15:20 PM 40.8092 -112.0039 189° South 165 190 5,100  Level Salt Lake Center
Thu 07:16:20 PM 40.8278 -112.0656 292° West 207 238 7,100 2,000 Climbing Salt Lake Center
Thu 07:17:14 PM 40.8250 -112.1347 267° West 246 283 8,900 1,869 Climbing Salt Lake Center
Thu 07:18:00 PM 40.6571 -112.2847 186° South  Level FlightAware Approximate
Thu 07:18:22 PM 40.7922 -112.2475 249° West 281 323 10,900  Level Salt Lake Center
Thu 07:19:00 PM 40.5399 -112.3034 194° South  Level FlightAware Approximate
Thu 07:19:17 PM 40.7278 -112.2775 199° South 310 357 11,100  Level Salt Lake Center
Thu 07:20:00 PM 40.4239 -112.3319 189° South  Level FlightAware Approximate
Thu 07:20:19 PM 40.6186 -112.3039 190° South 332 382 13,800  Level Salt Lake Center
Thu 07:21:21 PM 40.5225 -112.3192 187° South 345 397 15,800 1,756 Climbing Salt Lake Center
Thu 07:22:22 PM 40.4239 -112.3500 193° South 363 418 17,400 1,512 Climbing Salt Lake Center
Thu 07:23:24 PM 40.3244 -112.3783 192° South 365 420 18,900 1,016 Climbing Salt Lake Center
Thu 07:24:26 PM 40.2194 -112.4078 192° South 386 444 19,500 871 Climbing Salt Lake Center
Thu 07:25:28 PM 40.1086 -112.4389 192° South 413 475 20,700 1,317 Climbing Salt Lake Center
Thu 07:26:29 PM 39.9969 -112.4694 192° South 411 473 22,200 1,512 Climbing Salt Lake Center
Thu 07:27:31 PM 39.8658 -112.5064 192° South 406 467 23,800 1,210 Climbing Salt Lake Center
Thu 07:28:33 PM 39.7528 -112.5372 192° South 412 474 24,700 871 Climbing Salt Lake Center
Thu 07:29:35 PM 39.6375 -112.5703 192° South 424 488 25,600 634 Climbing Salt Lake Center
Thu 07:30:36 PM 39.5206 -112.6017 192° South 429 494 26,000 195 Climbing Salt Lake Center
Thu 07:31:38 PM 39.3975 -112.6364 192° South 449 517 26,000  Level Salt Lake Center
Thu 07:32:40 PM 39.2531 -112.6767 192° South 461 531 26,000  Level Salt Lake Center
Thu 07:33:42 PM 39.1300 -112.7103 192° South 455 524 26,000  Level Salt Lake Center
Thu 07:34:43 PM 39.0103 -112.7422 192° South 445 512 26,000  Level Salt Lake Center
Thu 07:35:45 PM 38.8908 -112.7744 192° South 440 506 26,000  Level Salt Lake Center
Thu 07:36:47 PM 38.7733 -112.8075 192° South 436 502 26,000  Level Salt Lake Center
Thu 07:37:49 PM 38.6575 -112.8383 192° South 430 495 26,000 -1,113 Level Salt Lake Center
Thu 07:38:51 PM 38.5222 -112.8756 192° South 419 482 23,700 -2,293 Descending Salt Lake Center
Thu 07:39:52 PM 38.4131 -112.9047 192° South 408 470 21,300 -2,341 Descending Salt Lake Center
Thu 07:40:54 PM 38.3061 -112.9333 192° South 398 458 18,900 -1,984 Descending Salt Lake Center
Thu 07:41:56 PM 38.2028 -112.9614 192° South 387 445 17,200 -1,839 Descending Salt Lake Center
Thu 07:42:58 PM 38.1011 -112.9889 192° South 382 440 15,100 -1,561 Descending Salt Lake Center
Thu 07:43:59 PM 38.0058 -113.0133 191° South 369 425 14,000 -780 Descending Salt Lake Center
Thu 07:45:01 PM 37.9272 -113.0336 192° South 320 368 13,500 -1,355 Descending Salt Lake Center
Thu 07:46:03 PM 37.8331 -113.0614 193° South 297 342 11,200 -1,500 Descending Salt Lake Center
Thu 07:47:05 PM 37.7717 -113.1097 212° Southwest 272 313 10,400 -1,024 Descending Salt Lake Center
Thu 07:48:06 PM 37.7203 -113.1592 217° Southwest 249 287 9,100 -1,279 Descending Salt Lake Center

Login

Don't have an account? Register now (free) for customized features, flight alerts, and more!